createdAt,value
2022-11-22T02:02:16.117Z,21.60
2022-11-22T02:05:08.260Z,22.13
2022-11-22T02:08:00.710Z,21.80
2022-11-22T02:10:52.827Z,20.00
2022-11-22T02:13:45.044Z,21.50
2022-11-22T02:16:35.869Z,22.23
2022-11-22T02:19:35.439Z,23.37
2022-11-22T02:22:35.195Z,21.70
2022-11-22T02:25:31.619Z,24.90
2022-11-22T02:28:21.955Z,24.67
2022-11-22T02:31:10.391Z,20.23
2022-11-22T02:34:01.578Z,23.30
2022-11-22T02:36:52.528Z,17.43
2022-11-22T02:39:43.864Z,23.00
2022-11-22T02:42:33.226Z,23.70
2022-11-22T02:45:23.155Z,22.37
2022-11-22T02:48:15.292Z,23.73
2022-11-22T02:51:03.459Z,23.57
2022-11-22T02:53:53.723Z,24.67
2022-11-22T02:56:42.135Z,23.53
2022-11-22T02:59:31.064Z,24.40
2022-11-22T03:02:21.144Z,24.67
2022-11-22T03:05:12.390Z,24.40
2022-11-22T03:08:00.825Z,24.60
2022-11-22T03:10:49.195Z,23.60
2022-11-22T03:13:37.711Z,24.57
2022-11-22T03:16:25.982Z,24.77
2022-11-22T03:19:16.239Z,25.43
2022-11-22T03:22:04.645Z,23.57
2022-11-22T03:24:53.042Z,24.03
2022-11-22T03:27:42.145Z,24.87
2022-11-22T03:30:30.494Z,24.13
2022-11-22T03:33:18.728Z,24.90
2022-11-22T03:36:09.130Z,25.30
2022-11-22T03:38:57.298Z,24.73
2022-11-22T03:41:45.900Z,27.30
2022-11-22T03:44:35.683Z,25.23
2022-11-22T03:47:24.497Z,25.00
2022-11-22T03:50:12.817Z,24.60
2022-11-22T03:53:04.138Z,19.03
2022-11-22T03:55:52.496Z,26.77
2022-11-22T03:58:41.776Z,27.37
2022-11-22T04:01:30.208Z,28.30
2022-11-22T04:04:19.175Z,24.47
2022-11-22T04:07:08.486Z,26.37
2022-11-22T04:10:00.245Z,29.53
2022-11-22T04:12:48.483Z,25.97
2022-11-22T04:15:37.129Z,26.37
2022-11-22T04:18:25.355Z,25.03
2022-11-22T04:21:31.341Z,28.70
2022-11-22T04:24:37.245Z,26.07
2022-11-22T04:27:27.032Z,23.20
2022-11-22T04:30:20.269Z,27.13
2022-11-22T04:33:08.014Z,26.00
2022-11-22T04:35:56.775Z,28.93
2022-11-22T04:38:45.153Z,26.17
2022-11-22T04:41:33.538Z,25.87
2022-11-22T04:44:41.053Z,28.00
2022-11-22T04:47:50.373Z,28.90
2022-11-22T04:50:56.897Z,28.77
2022-11-22T04:53:45.560Z,28.77
2022-11-22T04:56:33.858Z,28.33
2022-11-22T04:59:23.763Z,27.43
2022-11-22T05:02:12.848Z,28.40
2022-11-22T05:05:07.732Z,27.17
2022-11-22T05:08:06.524Z,29.90
2022-11-22T05:11:01.728Z,30.20
2022-11-22T05:13:54.068Z,27.60
2022-11-22T05:16:52.100Z,28.70
2022-11-22T05:19:43.689Z,30.10
2022-11-22T05:22:53.724Z,28.87
2022-11-22T05:25:43.289Z,28.63
2022-11-22T05:28:36.056Z,31.73
2022-11-22T05:31:27.228Z,28.20
2022-11-22T05:34:21.386Z,31.40
2022-11-22T05:37:09.755Z,20.80
2022-11-22T05:39:58.072Z,29.03
2022-11-22T05:42:46.553Z,29.97
2022-11-22T05:45:38.048Z,29.17
2022-11-22T05:48:26.295Z,27.83
2022-11-22T05:51:19.428Z,29.70
2022-11-22T05:54:08.044Z,34.00
2022-11-22T05:56:56.603Z,24.97
2022-11-22T05:59:44.802Z,28.83
2022-11-22T06:02:33.535Z,29.27
2022-11-22T06:05:21.781Z,29.60
2022-11-22T06:08:13.936Z,31.13
2022-11-22T06:11:06.202Z,27.10
2022-11-22T06:13:57.104Z,35.00
2022-11-22T06:16:45.492Z,28.83
2022-11-22T06:19:33.713Z,28.80
2022-11-22T06:22:23.907Z,27.17
2022-11-22T06:25:14.329Z,27.77
2022-11-22T06:28:02.733Z,31.10
2022-11-22T06:30:51.048Z,31.47
2022-11-22T06:33:40.038Z,28.07
2022-11-22T06:36:30.352Z,29.80
2022-11-22T06:39:18.828Z,30.63
2022-11-22T06:42:08.478Z,27.63
2022-11-22T06:44:56.783Z,27.70
2022-11-22T06:47:45.278Z,32.97
2022-11-22T06:50:33.859Z,29.20
2022-11-22T06:53:45.789Z,30.20
2022-11-22T06:56:32.094Z,31.20
2022-11-22T06:59:22.071Z,28.40
2022-11-22T07:02:12.926Z,29.30
2022-11-22T07:11:23.077Z,26.67
2022-11-22T07:14:12.825Z,29.33
2022-11-22T07:17:02.837Z,27.80
2022-11-22T07:19:51.556Z,23.57
2022-11-22T07:22:40.162Z,29.47
2022-11-22T07:25:30.489Z,28.93
2022-11-22T07:28:19.745Z,26.17
2022-11-22T07:31:09.219Z,29.30
2022-11-22T07:34:00.139Z,24.60
2022-11-22T07:36:50.328Z,28.03
2022-11-22T07:39:42.046Z,29.20
2022-11-22T07:42:31.461Z,25.30
2022-11-22T07:45:20.131Z,22.83
2022-11-22T07:48:09.579Z,28.23
2022-11-22T07:51:07.378Z,27.60
2022-11-22T07:53:59.960Z,27.93
2022-11-22T07:56:49.945Z,26.77
2022-11-22T07:59:39.342Z,30.37
2022-11-22T08:02:32.591Z,28.40
2022-11-22T08:05:24.073Z,28.57
2022-11-22T08:08:15.009Z,27.97
2022-11-22T08:11:06.820Z,29.23
2022-11-22T08:14:05.953Z,23.43
2022-11-22T08:16:56.355Z,29.53
2022-11-22T08:19:44.971Z,26.73
2022-11-22T08:22:35.794Z,22.53
2022-11-22T08:25:26.685Z,27.20
2022-11-22T08:28:15.219Z,27.50
2022-11-22T08:31:06.562Z,29.27
2022-11-22T08:33:55.798Z,29.67
2022-11-22T08:36:48.125Z,29.50
2022-11-22T08:39:36.886Z,29.80
2022-11-22T08:42:30.677Z,27.70
2022-11-22T08:45:20.011Z,30.80
2022-11-22T08:48:09.187Z,30.10
2022-11-22T08:51:01.383Z,31.23
2022-11-22T08:53:50.002Z,28.17
2022-11-22T08:56:38.394Z,22.23
2022-11-22T08:59:33.510Z,24.80
2022-11-22T09:02:26.403Z,31.50
2022-11-22T09:05:16.843Z,28.83
2022-11-22T09:08:27.210Z,29.80
2022-11-22T09:11:20.150Z,25.77
2022-11-22T09:14:08.693Z,32.50
2022-11-22T09:16:59.336Z,20.60
2022-11-22T09:19:48.241Z,35.27
2022-11-22T09:22:44.854Z,32.60
2022-11-22T09:25:37.775Z,31.30
2022-11-22T09:28:29.898Z,21.90
2022-11-22T09:31:25.204Z,34.47
2022-11-22T09:34:16.578Z,22.90
2022-11-22T09:37:05.330Z,30.47
2022-11-22T09:39:55.083Z,30.23
2022-11-22T09:43:06.839Z,30.87
2022-11-22T09:46:31.004Z,33.67
2022-11-22T09:49:29.680Z,24.53
2022-11-22T09:52:25.251Z,28.70
2022-11-22T09:55:24.347Z,30.40
2022-11-22T09:58:26.360Z,33.10
2022-11-22T10:01:19.755Z,32.13
2022-11-22T10:04:14.802Z,28.07
2022-11-22T10:07:17.195Z,31.13
2022-11-22T10:10:12.813Z,31.90
2022-11-22T10:13:06.189Z,27.30
2022-11-22T10:16:01.886Z,31.90
2022-11-22T10:18:57.773Z,30.07
2022-11-22T10:21:49.122Z,31.60
2022-11-22T10:24:43.585Z,33.77
2022-11-22T10:27:34.803Z,34.30
2022-11-22T10:30:23.537Z,29.80
2022-11-22T10:33:21.588Z,31.10
2022-11-22T10:36:24.654Z,30.17
2022-11-22T10:39:34.478Z,31.70
2022-11-22T10:42:54.864Z,33.70
2022-11-22T10:45:49.772Z,28.77
2022-11-22T10:48:46.056Z,34.20
2022-11-22T10:51:48.444Z,34.83
2022-11-22T10:54:53.135Z,34.17
2022-11-22T10:57:55.632Z,28.50
2022-11-22T11:00:51.669Z,32.00
2022-11-22T11:03:45.088Z,32.87
2022-11-22T11:07:10.001Z,29.90
2022-11-22T11:13:08.283Z,33.93
2022-11-22T11:16:01.269Z,32.90
2022-11-22T11:18:56.730Z,32.30
2022-11-22T11:21:47.557Z,31.67
2022-11-22T11:24:50.922Z,31.43
2022-11-22T11:27:45.947Z,31.60
2022-11-22T11:30:42.749Z,31.60
2022-11-22T11:34:19.944Z,30.40
2022-11-22T11:37:24.921Z,26.20
2022-11-22T11:40:29.947Z,27.67
2022-11-22T11:43:26.331Z,30.20
2022-11-22T11:46:24.333Z,29.77
2022-11-22T11:49:16.279Z,32.50
2022-11-22T11:52:09.067Z,30.00
2022-11-22T11:55:00.643Z,31.30
2022-11-22T11:57:57.726Z,31.50
2022-11-22T12:00:51.677Z,30.13
2022-11-22T12:03:42.130Z,30.77
2022-11-22T12:06:35.209Z,29.77
2022-11-22T12:09:33.639Z,31.13
2022-11-22T12:12:48.936Z,34.47
2022-11-22T12:15:50.557Z,30.20
2022-11-22T12:18:53.596Z,31.60
2022-11-22T12:21:52.734Z,29.83
2022-11-22T12:25:16.618Z,30.20
2022-11-22T12:28:12.632Z,32.07
2022-11-22T12:31:15.347Z,30.77
2022-11-22T12:34:14.540Z,30.50
2022-11-22T12:37:12.193Z,30.03
2022-11-22T12:40:07.558Z,31.10
2022-11-22T12:43:01.591Z,31.00
2022-11-22T12:45:55.564Z,29.27
2022-11-22T12:48:52.315Z,26.20
2022-11-22T12:51:51.719Z,31.17
2022-11-22T12:54:50.426Z,32.40
2022-11-22T13:04:04.746Z,31.30
2022-11-22T13:06:58.595Z,31.43
2022-11-22T13:09:58.347Z,31.13
2022-11-22T13:12:47.956Z,32.20
2022-11-22T13:15:40.966Z,32.80
2022-11-22T13:18:35.270Z,30.20
2022-11-22T13:21:31.860Z,30.27
2022-11-22T13:24:35.572Z,32.73
2022-11-22T13:27:30.836Z,33.83
2022-11-22T13:30:21.454Z,28.37
2022-11-22T13:33:25.577Z,30.17
2022-11-22T13:36:39.197Z,33.43
2022-11-22T13:39:29.558Z,32.33
2022-11-22T13:42:21.551Z,30.67
2022-11-22T13:45:25.262Z,29.70
2022-11-22T13:48:13.800Z,31.77
2022-11-22T13:51:03.477Z,25.30
2022-11-22T13:53:53.158Z,29.60
2022-11-22T13:57:01.292Z,35.10
2022-11-22T14:00:10.503Z,31.00
2022-11-22T14:03:33.988Z,31.60
2022-11-22T14:06:27.003Z,34.90
2022-11-22T14:09:32.832Z,32.97
2022-11-22T14:12:35.898Z,33.23
2022-11-22T14:15:51.374Z,33.30
2022-11-22T14:19:04.961Z,28.90
2022-11-22T14:22:14.210Z,31.20
2022-11-22T14:25:23.140Z,31.20
2022-11-22T14:28:34.589Z,27.77
2022-11-22T14:31:26.484Z,30.20
2022-11-22T14:34:21.733Z,30.57
2022-11-22T14:37:36.271Z,33.67
2022-11-22T14:40:36.002Z,33.43
2022-11-22T14:43:31.497Z,32.20
2022-11-22T14:46:51.753Z,32.00
2022-11-22T14:49:42.282Z,33.13
2022-11-22T14:52:41.978Z,30.83
2022-11-22T14:55:36.393Z,32.00
2022-11-22T14:58:30.321Z,32.93
2022-11-22T15:01:59.639Z,35.03
2022-11-22T15:09:13.283Z,31.43
2022-11-22T15:09:22.732Z,35.93
2022-11-22T15:11:47.930Z,31.30
2022-11-22T15:57:26.497Z,35.10
2022-11-22T16:00:25.666Z,31.87
2022-11-22T16:03:29.286Z,36.30
2022-11-22T16:06:29.377Z,33.40
2022-11-22T16:09:35.850Z,35.50
2022-11-22T16:12:40.989Z,35.10
2022-11-22T16:15:37.708Z,36.47
2022-11-22T16:18:31.302Z,35.23
2022-11-22T16:21:29.393Z,37.23
2022-11-22T16:24:23.002Z,36.17
2022-11-22T16:27:16.668Z,35.30
2022-11-22T16:30:19.409Z,33.57
2022-11-22T16:33:17.857Z,28.00
2022-11-22T16:36:13.937Z,35.00
2022-11-22T16:39:06.033Z,44.45
2022-11-22T16:41:55.985Z,38.17
2022-11-22T16:45:03.557Z,35.20
2022-11-22T16:48:16.610Z,36.33
2022-11-22T16:51:10.349Z,30.07
2022-11-22T16:54:02.299Z,47.45
2022-11-22T16:56:53.886Z,38.87
2022-11-22T16:59:44.103Z,38.23
2022-11-22T17:02:35.165Z,34.53
2022-11-22T17:05:26.019Z,37.00
2022-11-22T17:08:18.501Z,40.30
2022-11-22T17:11:13.978Z,34.80
2022-11-22T17:14:05.048Z,35.80
2022-11-22T17:16:53.842Z,37.67
2022-11-22T17:19:53.703Z,36.83
2022-11-22T17:22:44.674Z,38.33
2022-11-22T17:25:34.643Z,38.90
2022-11-22T17:28:23.766Z,36.20
2022-11-22T17:31:25.845Z,37.70
2022-11-22T17:34:15.055Z,38.03
2022-11-22T17:37:07.499Z,31.90
2022-11-22T17:40:01.012Z,38.00
2022-11-22T17:42:51.885Z,36.93
2022-11-22T17:45:45.806Z,39.07
2022-11-22T17:48:37.111Z,35.80
2022-11-22T17:51:29.995Z,35.37
2022-11-22T17:54:20.517Z,37.07
2022-11-22T17:57:09.174Z,37.40
2022-11-22T18:00:03.961Z,39.00
2022-11-22T18:02:53.110Z,38.30
2022-11-22T18:05:43.715Z,39.47
2022-11-22T18:08:34.757Z,38.27
2022-11-22T18:11:25.510Z,37.77
2022-11-22T18:14:16.856Z,36.37
2022-11-22T18:17:08.460Z,34.60
2022-11-22T18:19:58.385Z,34.40
2022-11-22T18:22:50.569Z,39.93
2022-11-22T18:25:42.851Z,38.87
2022-11-22T18:28:32.734Z,39.33
2022-11-22T18:31:22.697Z,37.80
2022-11-22T18:34:22.244Z,37.73
2022-11-22T18:37:14.496Z,38.40
2022-11-22T18:40:13.780Z,36.20
2022-11-22T18:43:11.030Z,37.97
2022-11-22T18:46:06.438Z,37.20
2022-11-22T18:48:59.270Z,34.53
2022-11-22T18:51:50.158Z,39.00
2022-11-22T18:54:45.425Z,37.27
2022-11-22T18:57:37.288Z,38.50
2022-11-22T19:00:28.441Z,37.77
2022-11-22T19:03:17.924Z,39.97
2022-11-22T19:06:09.299Z,38.30
2022-11-22T19:09:00.466Z,35.77
2022-11-22T19:11:58.330Z,38.27
2022-11-22T19:15:04.788Z,40.03
2022-11-22T19:17:57.307Z,34.47
2022-11-22T19:20:55.944Z,37.87
2022-11-22T19:23:47.432Z,33.23
2022-11-22T19:26:45.250Z,35.23
2022-11-22T19:29:45.707Z,37.63
2022-11-22T19:32:52.792Z,37.33
2022-11-22T19:35:44.827Z,38.20
2022-11-22T19:38:44.642Z,38.53
2022-11-22T19:41:45.673Z,37.90
2022-11-22T19:44:39.984Z,39.27
2022-11-22T19:47:32.963Z,36.27
2022-11-22T19:50:25.073Z,37.87
2022-11-22T19:53:17.718Z,38.70
2022-11-22T19:56:29.149Z,37.20
2022-11-22T19:59:21.057Z,37.23
2022-11-22T20:02:14.145Z,36.07
2022-11-22T20:05:10.866Z,36.60
2022-11-22T20:08:01.544Z,34.73
2022-11-22T20:10:57.907Z,36.83
2022-11-22T20:14:00.577Z,35.07
2022-11-22T20:16:49.440Z,37.83
2022-11-22T20:19:46.113Z,38.40
2022-11-22T20:22:36.257Z,34.10
2022-11-22T20:25:31.964Z,40.20
2022-11-22T20:28:25.049Z,37.10
2022-11-22T20:31:18.244Z,36.73
2022-11-22T20:34:21.658Z,43.35
2022-11-22T20:37:15.493Z,39.60
2022-11-22T20:40:09.371Z,37.07
2022-11-22T20:43:13.304Z,35.63
2022-11-22T20:49:37.943Z,33.87
2022-11-22T20:52:41.500Z,38.23
2022-11-22T20:55:44.600Z,38.23
2022-11-22T20:58:50.346Z,37.57
2022-11-22T21:01:46.177Z,40.47
2022-11-22T21:04:44.211Z,39.40
2022-11-22T21:07:41.620Z,37.77
2022-11-22T21:10:40.770Z,39.27
2022-11-22T21:13:48.513Z,36.83
2022-11-22T21:16:45.115Z,38.47
2022-11-22T21:19:39.269Z,38.50
2022-11-22T21:22:41.121Z,37.20
2022-11-22T21:25:58.594Z,39.43
2022-11-22T21:28:55.437Z,39.60
2022-11-22T21:31:48.114Z,38.10
2022-11-22T21:34:39.780Z,38.90
2022-11-22T21:38:06.778Z,38.80
2022-11-22T21:48:08.062Z,33.70
2022-11-22T21:51:09.107Z,40.10
2022-11-22T21:54:11.641Z,37.60
2022-11-22T21:57:18.774Z,40.37
2022-11-22T22:00:26.198Z,39.93
2022-11-22T22:03:54.149Z,39.83
2022-11-22T22:06:59.725Z,39.83
2022-11-22T22:10:23.314Z,37.33
2022-11-22T22:13:21.776Z,42.33
2022-11-22T22:16:21.696Z,37.23
2022-11-22T22:19:30.405Z,38.57
2022-11-22T22:22:23.785Z,39.60
2022-11-22T22:25:40.109Z,42.20
2022-11-22T22:28:47.326Z,42.60
2022-11-22T22:31:44.417Z,38.83
2022-11-22T22:34:51.338Z,39.03
2022-11-22T22:38:01.496Z,40.90
2022-11-22T22:41:06.406Z,43.40
2022-11-22T22:44:03.020Z,38.80
2022-11-22T22:47:09.437Z,42.30
2022-11-22T22:50:41.065Z,41.23
2022-11-22T22:53:47.118Z,41.43
2022-11-22T22:56:55.129Z,41.70
2022-11-22T23:00:31.847Z,35.97
2022-11-22T23:04:08.137Z,41.50
2022-11-22T23:07:30.328Z,43.30
2022-11-22T23:10:35.614Z,44.37
2022-11-22T23:18:52.893Z,42.40
2022-11-22T23:22:16.738Z,44.03
2022-11-22T23:25:52.454Z,43.47
2022-11-22T23:29:24.673Z,43.57
2022-11-22T23:36:15.924Z,43.23
2022-11-22T23:39:57.316Z,45.50
2022-11-22T23:43:40.725Z,47.17
2022-11-22T23:47:18.042Z,46.83
2022-11-22T23:50:51.917Z,44.20
2022-11-22T23:58:03.717Z,47.37
